Time;durP1;ratioP1;P1;durP2;ratioP2;P2;SDS_P1;SDS_P2;PMS_P1;PMS_P2;Temp;Humidity;BMP_temperature;BMP_pressure;BME280_temperature;BME280_humidity;BME280_pressure;Samples;Min_cycle;Max_cycle;Signal;HPM_P1;HPM_P2
2023/10/02 00:05:50;;;;;;;15.60;7.82;;;11.50;99.90;;;;;;6234601;28;20040;-75
2023/10/02 00:08:53;;;;;;;18.10;8.05;;;11.40;99.90;;;;;;6234675;28;20156;-76
2023/10/02 00:11:55;;;;;;;9.00;4.85;;;11.40;99.90;;;;;;6228989;28;20042;-75
2023/10/02 00:14:55;;;;;;;10.45;5.97;;;11.40;99.90;;;;;;6221987;28;20045;-75
2023/10/02 00:17:57;;;;;;;10.88;5.65;;;11.40;99.90;;;;;;6219479;28;20034;-75
2023/10/02 00:24:16;;;;;;;8.77;4.63;;;11.30;99.90;;;;;;6219646;28;20049;-75
2023/10/02 00:27:21;;;;;;;9.02;5.43;;;11.30;99.90;;;;;;6220381;28;20069;-75
2023/10/02 00:30:30;;;;;;;12.10;6.35;;;11.20;99.90;;;;;;6220301;28;20115;-75
2023/10/02 00:33:32;;;;;;;13.23;5.78;;;11.20;99.90;;;;;;6237123;28;20103;-76
2023/10/02 00:36:33;;;;;;;11.15;5.32;;;11.20;99.90;;;;;;6245410;28;20050;-76
2023/10/02 00:39:37;;;;;;;9.90;5.63;;;11.20;99.90;;;;;;6244241;28;20418;-76
2023/10/02 00:42:38;;;;;;;7.20;4.78;;;11.10;99.90;;;;;;6227850;28;20046;-76
2023/10/02 00:45:39;;;;;;;9.55;6.28;;;11.20;99.90;;;;;;6219957;28;20053;-76
2023/10/02 00:48:41;;;;;;;11.77;4.97;;;11.20;99.90;;;;;;6220307;28;20042;-76
2023/10/02 00:51:42;;;;;;;12.13;5.20;;;11.20;99.90;;;;;;6220072;28;20046;-76
2023/10/02 00:54:45;;;;;;;10.40;5.38;;;11.10;99.90;;;;;;6219719;28;20093;-76
2023/10/02 00:57:50;;;;;;;12.93;5.53;;;11.10;99.90;;;;;;6223090;28;20046;-76
2023/10/02 01:00:53;;;;;;;10.27;6.10;;;11.10;99.90;;;;;;6224712;28;20134;-76
2023/10/02 01:04:10;;;;;;;10.73;6.03;;;11.10;99.90;;;;;;6224351;28;20049;-76
2023/10/02 01:07:15;;;;;;;9.55;5.47;;;11.00;99.90;;;;;;6224447;28;20042;-76
2023/10/02 01:10:23;;;;;;;10.23;5.30;;;11.00;99.90;;;;;;6224829;28;20506;-76
2023/10/02 01:13:29;;;;;;;9.77;4.90;;;11.00;99.90;;;;;;6224453;28;20053;-76
2023/10/02 01:16:36;;;;;;;10.07;5.30;;;10.90;99.90;;;;;;6240970;28;20049;-76
2023/10/02 01:19:52;;;;;;;10.65;5.60;;;10.90;99.90;;;;;;6248593;28;20037;-76
2023/10/02 01:23:11;;;;;;;10.93;5.60;;;10.90;99.90;;;;;;6248676;28;20418;-76
2023/10/02 01:26:18;;;;;;;12.15;5.28;;;10.90;99.90;;;;;;6248519;28;20083;-76
2023/10/02 01:29:20;;;;;;;7.73;4.50;;;10.90;99.90;;;;;;6225334;28;20057;-76
2023/10/02 01:32:25;;;;;;;9.77;5.18;;;10.90;99.90;;;;;;6224387;28;20201;-76
2023/10/02 01:35:29;;;;;;;11.63;6.03;;;10.90;99.90;;;;;;6223218;28;20426;-76
2023/10/02 01:38:32;;;;;;;8.85;4.53;;;10.90;99.90;;;;;;6223608;28;20050;-76
2023/10/02 01:41:35;;;;;;;9.93;4.85;;;10.90;99.90;;;;;;6232743;28;20443;-76
2023/10/02 01:44:54;;;;;;;9.95;5.38;;;10.80;99.90;;;;;;6243743;28;20366;-76
2023/10/02 01:47:56;;;;;;;9.82;5.32;;;10.80;99.90;;;;;;6223892;28;20038;-76
2023/10/02 01:51:15;;;;;;;9.95;5.13;;;10.80;99.90;;;;;;6223614;28;20056;-76
2023/10/02 01:54:19;;;;;;;10.52;5.15;;;10.80;99.90;;;;;;6223070;28;20140;-76
2023/10/02 01:57:24;;;;;;;8.05;4.82;;;10.80;99.90;;;;;;6223518;28;20046;-76
2023/10/02 02:00:26;;;;;;;7.85;6.20;;;10.90;99.90;;;;;;6242239;28;20129;-76
2023/10/02 02:03:29;;;;;;;8.98;4.32;;;10.80;99.90;;;;;;6247461;28;20052;-75
2023/10/02 02:06:30;;;;;;;8.82;4.63;;;10.80;99.90;;;;;;6247581;28;20518;-76
2023/10/02 02:09:37;;;;;;;6.80;4.93;;;10.80;99.90;;;;;;6246775;28;20046;-76
2023/10/02 02:12:45;;;;;;;8.35;5.13;;;10.80;99.90;;;;;;6248006;28;20080;-76
2023/10/02 02:15:51;;;;;;;10.80;4.72;;;10.80;99.90;;;;;;6247094;28;20053;-76
2023/10/02 02:18:54;;;;;;;11.93;6.57;;;10.80;99.90;;;;;;6247325;28;20037;-75
2023/10/02 02:21:56;;;;;;;8.02;4.45;;;10.70;99.90;;;;;;6247320;28;20048;-75
2023/10/02 02:24:59;;;;;;;13.43;5.07;;;10.70;99.90;;;;;;6247083;28;20517;-75
2023/10/02 02:28:06;;;;;;;8.52;4.25;;;10.60;99.90;;;;;;6247346;28;20053;-76
2023/10/02 02:31:29;;;;;;;12.00;5.87;;;10.60;99.90;;;;;;6246728;28;20041;-75
2023/10/02 02:34:30;;;;;;;6.43;4.55;;;10.60;99.90;;;;;;6246385;28;20049;-75
2023/10/02 02:37:32;;;;;;;5.82;4.75;;;10.50;99.90;;;;;;6246973;28;20057;-75
2023/10/02 02:40:34;;;;;;;6.72;4.35;;;10.50;99.90;;;;;;6247222;28;20195;-75
2023/10/02 02:43:38;;;;;;;6.45;4.80;;;10.50;99.90;;;;;;6230250;28;20073;-76
2023/10/02 02:46:53;;;;;;;8.30;5.30;;;10.50;99.90;;;;;;6222278;28;20046;-76
2023/10/02 02:49:58;;;;;;;8.43;4.93;;;10.40;99.90;;;;;;6221908;28;20418;-75
2023/10/02 02:56:22;;;;;;;8.70;4.95;;;10.40;99.90;;;;;;6221840;28;20041;-76
2023/10/02 02:59:29;;;;;;;9.60;4.28;;;10.40;99.90;;;;;;6221963;28;20112;-76
2023/10/02 03:02:31;;;;;;;7.78;5.28;;;10.40;99.90;;;;;;6222399;28;20056;-76
2023/10/02 03:05:40;;;;;;;8.68;4.70;;;10.40;99.90;;;;;;6221501;28;20515;-75
2023/10/02 03:08:44;;;;;;;11.77;6.40;;;10.40;99.90;;;;;;6239264;28;20053;-75
2023/10/02 03:11:45;;;;;;;7.82;5.13;;;10.30;99.90;;;;;;6245980;28;20081;-75
2023/10/02 03:14:51;;;;;;;8.45;5.15;;;10.30;99.90;;;;;;6245849;28;20049;-75
2023/10/02 03:17:58;;;;;;;11.85;5.18;;;10.30;99.90;;;;;;6245904;28;20128;-75
2023/10/02 03:21:13;;;;;;;7.93;5.30;;;10.30;99.90;;;;;;6245354;28;20049;-76
2023/10/02 03:24:18;;;;;;;8.93;5.53;;;10.30;99.90;;;;;;6246187;28;20335;-75
2023/10/02 03:27:21;;;;;;;8.68;4.88;;;10.30;99.90;;;;;;6245411;28;20132;-76
2023/10/02 03:30:38;;;;;;;6.82;4.40;;;10.20;99.90;;;;;;6245830;28;20099;-76
2023/10/02 03:33:40;;;;;;;8.27;4.78;;;10.20;99.90;;;;;;6245556;28;20129;-75
2023/10/02 03:36:43;;;;;;;8.13;4.60;;;10.10;99.90;;;;;;6245620;28;20053;-76
2023/10/02 03:39:52;;;;;;;9.25;5.32;;;10.10;99.90;;;;;;6245402;28;20037;-75
2023/10/02 03:42:55;;;;;;;12.85;5.55;;;10.10;99.90;;;;;;6226547;28;20056;-75
2023/10/02 03:46:01;;;;;;;6.43;4.03;;;10.10;99.90;;;;;;6220724;28;20595;-75
2023/10/02 03:49:04;;;;;;;11.05;5.28;;;10.10;99.90;;;;;;6227265;28;20400;-75
2023/10/02 03:52:05;;;;;;;8.05;4.78;;;10.10;99.90;;;;;;6221575;28;20045;-76
2023/10/02 03:55:17;;;;;;;9.10;4.47;;;10.10;99.90;;;;;;6220655;28;20044;-75
2023/10/02 03:58:35;;;;;;;14.63;4.88;;;10.10;99.90;;;;;;6220574;28;20069;-75
2023/10/02 04:01:40;;;;;;;7.32;4.53;;;10.10;99.90;;;;;;6236490;28;20128;-76
2023/10/02 04:04:42;;;;;;;12.68;5.10;;;10.10;99.90;;;;;;6228780;28;20050;-76
2023/10/02 04:07:47;;;;;;;5.45;4.28;;;10.10;99.90;;;;;;6239209;28;20510;-75
2023/10/02 04:10:55;;;;;;;8.18;4.32;;;10.10;99.90;;;;;;6220330;28;20049;-75
2023/10/02 04:13:57;;;;;;;12.05;5.85;;;10.20;99.90;;;;;;6220194;28;20418;-75
2023/10/02 04:17:13;;;;;;;12.23;4.78;;;10.10;99.90;;;;;;6220340;28;20056;-75
2023/10/02 04:20:27;;;;;;;9.13;4.70;;;10.10;99.90;;;;;;6221372;28;20049;-75
2023/10/02 04:23:29;;;;;;;9.43;4.75;;;10.10;99.90;;;;;;6220668;28;20041;-76
2023/10/02 04:26:33;;;;;;;7.95;4.82;;;10.10;99.90;;;;;;6219979;28;20056;-75
2023/10/02 04:29:37;;;;;;;11.95;5.68;;;10.00;99.90;;;;;;6220403;28;20046;-75
2023/10/02 04:32:42;;;;;;;8.65;4.60;;;10.00;99.90;;;;;;6225507;28;20046;-75
2023/10/02 04:35:52;;;;;;;8.88;4.85;;;10.00;99.90;;;;;;6241393;28;20136;-75
2023/10/02 04:38:55;;;;;;;10.38;4.57;;;9.90;99.90;;;;;;6249657;28;20587;-75
2023/10/02 04:42:14;;;;;;;10.73;6.95;;;9.90;99.90;;;;;;6238510;28;20045;-75
2023/10/02 04:45:20;;;;;;;9.23;4.63;;;9.90;99.90;;;;;;6224907;28;20128;-75
2023/10/02 04:48:27;;;;;;;10.88;5.18;;;9.90;99.90;;;;;;6225349;28;20438;-75
2023/10/02 04:51:28;;;;;;;13.70;4.60;;;9.90;99.90;;;;;;6224708;28;20042;-75
2023/10/02 04:54:30;;;;;;;9.75;5.43;;;9.90;99.90;;;;;;6224864;28;20046;-75
2023/10/02 04:57:34;;;;;;;13.15;5.07;;;9.90;99.90;;;;;;6224719;28;20054;-75
2023/10/02 05:00:38;;;;;;;8.68;4.90;;;9.90;99.90;;;;;;6225011;28;20050;-76
2023/10/02 05:03:49;;;;;;;12.70;5.40;;;9.90;99.90;;;;;;6224362;28;20139;-75
2023/10/02 05:06:55;;;;;;;10.98;5.18;;;9.90;99.90;;;;;;6241532;28;20112;-75
2023/10/02 05:09:56;;;;;;;10.70;5.88;;;9.90;99.90;;;;;;6249376;28;20055;-75
2023/10/02 05:12:58;;;;;;;11.15;5.38;;;9.90;99.90;;;;;;6248975;28;20045;-75
2023/10/02 05:16:07;;;;;;;11.50;5.18;;;9.80;99.90;;;;;;6248933;28;20053;-76
2023/10/02 05:19:14;;;;;;;12.52;4.63;;;9.80;99.90;;;;;;6248454;28;20072;-75
2023/10/02 05:22:16;;;;;;;11.13;6.63;;;9.80;99.90;;;;;;6248979;28;20053;-75
2023/10/02 05:25:18;;;;;;;12.65;5.70;;;9.80;99.90;;;;;;6248362;28;20049;-75
2023/10/02 05:28:19;;;;;;;12.90;5.30;;;9.80;99.90;;;;;;6248919;28;20060;-75
2023/10/02 05:31:21;;;;;;;11.90;6.53;;;9.80;99.90;;;;;;6243468;28;20056;-75
2023/10/02 05:34:25;;;;;;;15.32;6.50;;;9.90;99.90;;;;;;6223675;28;20045;-75
2023/10/02 05:37:30;;;;;;;8.70;5.53;;;9.90;99.90;;;;;;6223846;28;20046;-75
2023/10/02 05:40:38;;;;;;;11.82;5.68;;;10.00;99.90;;;;;;6224480;28;20133;-75
2023/10/02 05:43:55;;;;;;;11.48;5.07;;;10.00;99.90;;;;;;6246803;28;20451;-75
2023/10/02 05:47:04;;;;;;;12.52;6.10;;;10.00;99.90;;;;;;6241584;28;20462;-75
2023/10/02 05:50:09;;;;;;;10.00;4.75;;;10.00;99.90;;;;;;6248606;28;20041;-75
2023/10/02 05:53:11;;;;;;;14.18;6.28;;;10.00;99.90;;;;;;6249193;28;20049;-75
2023/10/02 05:56:13;;;;;;;20.50;6.10;;;10.10;99.90;;;;;;6236408;28;20058;-75
2023/10/02 05:59:24;;;;;;;9.35;4.45;;;10.10;99.90;;;;;;6235805;28;20070;-75
2023/10/02 06:02:27;;;;;;;12.30;5.32;;;10.20;99.90;;;;;;6222950;28;20042;-75
2023/10/02 06:05:31;;;;;;;11.27;5.63;;;10.20;99.90;;;;;;6222732;28;20420;-77
2023/10/02 06:08:34;;;;;;;11.52;6.00;;;10.20;99.90;;;;;;6223437;28;20534;-76
2023/10/02 06:11:59;;;;;;;11.13;5.63;;;10.30;99.90;;;;;;6180309;28;20045;-76
2023/10/02 06:15:03;;;;;;;14.55;6.10;;;10.30;99.90;;;;;;6235940;28;20045;-75
2023/10/02 06:18:05;;;;;;;9.40;5.47;;;10.40;99.90;;;;;;6246647;28;20046;-76
2023/10/02 06:21:10;;;;;;;14.05;6.28;;;10.50;99.90;;;;;;6242266;28;20536;-76
2023/10/02 06:24:12;;;;;;;8.10;5.53;;;10.60;99.90;;;;;;6240127;28;20183;-76
2023/10/02 06:27:16;;;;;;;12.82;5.93;;;10.80;99.90;;;;;;6238265;28;20041;-75
2023/10/02 06:30:18;;;;;;;18.30;7.45;;;11.00;99.90;;;;;;6251956;28;20045;-78
2023/10/02 06:33:21;;;;;;;14.23;6.45;;;11.10;99.90;;;;;;6242952;28;20521;-76
2023/10/02 06:36:24;;;;;;;11.40;5.47;;;11.30;99.90;;;;;;6247157;28;20053;-77
2023/10/02 06:39:26;;;;;;;9.80;5.95;;;11.40;99.90;;;;;;6246606;28;20041;-76
2023/10/02 06:42:28;;;;;;;9.82;4.80;;;11.60;99.90;;;;;;6244913;28;20088;-76
2023/10/02 06:45:32;;;;;;;11.80;5.03;;;11.70;99.90;;;;;;6245852;28;20041;-76
2023/10/02 06:48:35;;;;;;;11.90;5.43;;;11.90;99.90;;;;;;6232748;28;20057;-76
2023/10/02 06:51:38;;;;;;;13.48;5.38;;;12.10;99.90;;;;;;6245083;28;20056;-76
2023/10/02 06:54:42;;;;;;;10.13;5.13;;;12.30;99.90;;;;;;6245327;28;20045;-76
2023/10/02 06:57:49;;;;;;;9.18;4.45;;;12.60;99.90;;;;;;6247049;28;20048;-76
2023/10/02 07:01:01;;;;;;;9.48;5.78;;;12.80;99.90;;;;;;6239020;28;20548;-76
2023/10/02 07:04:09;;;;;;;9.88;5.55;;;13.20;99.90;;;;;;6246671;28;20547;-76
2023/10/02 07:07:12;;;;;;;10.70;5.57;;;13.60;99.90;;;;;;6246377;28;20560;-76
2023/10/02 07:10:14;;;;;;;12.07;5.93;;;14.00;99.90;;;;;;6246631;28;20049;-76
2023/10/02 07:13:20;;;;;;;9.52;5.53;;;14.50;99.90;;;;;;6238348;28;20049;-77
2023/10/02 07:16:22;;;;;;;9.93;5.50;;;14.90;99.90;;;;;;6242423;28;20392;-77
2023/10/02 07:19:38;;;;;;;9.40;6.10;;;15.40;99.90;;;;;;6242025;28;20048;-77
2023/10/02 07:22:43;;;;;;;15.05;5.80;;;16.00;99.90;;;;;;6249502;28;20045;-76
2023/10/02 07:25:50;;;;;;;9.75;5.60;;;16.60;99.90;;;;;;6237838;28;20133;-76
2023/10/02 07:28:52;;;;;;;10.52;6.25;;;17.10;99.90;;;;;;6238704;28;20503;-76
2023/10/02 07:31:53;;;;;;;11.27;5.55;;;17.60;99.90;;;;;;6247759;28;20055;-76
2023/10/02 07:35:09;;;;;;;11.40;6.13;;;18.10;99.90;;;;;;6240486;28;20065;-77
2023/10/02 07:38:12;;;;;;;13.68;5.82;;;18.60;99.90;;;;;;6246232;28;20046;-76
2023/10/02 07:41:23;;;;;;;13.60;5.75;;;19.10;99.90;;;;;;6245467;28;20053;-76
2023/10/02 07:44:25;;;;;;;12.75;5.63;;;19.60;99.90;;;;;;6239344;28;20049;-76
2023/10/02 07:47:26;;;;;;;8.35;4.55;;;20.00;99.90;;;;;;6237359;28;20041;-77
2023/10/02 07:50:34;;;;;;;12.15;5.72;;;20.30;99.90;;;;;;6243551;28;20522;-78
2023/10/02 07:53:40;;;;;;;14.68;5.90;;;20.60;99.90;;;;;;6244526;28;20053;-77
2023/10/02 07:56:47;;;;;;;9.73;5.55;;;20.90;99.90;;;;;;6238947;28;20050;-76
2023/10/02 07:59:49;;;;;;;7.97;5.40;;;21.30;99.90;;;;;;6244034;28;20037;-76
2023/10/02 08:02:51;;;;;;;13.32;6.10;;;21.60;99.90;;;;;;6245084;28;20045;-78
2023/10/02 08:05:56;;;;;;;9.40;4.65;;;21.90;99.90;;;;;;6245518;28;20041;-78
2023/10/02 08:12:29;;;;;;;13.13;6.32;;;22.60;99.90;;;;;;6243448;28;20050;-77
2023/10/02 08:15:32;;;;;;;13.02;5.95;;;23.30;99.00;;;;;;6234778;28;20128;-76
2023/10/02 08:18:55;;;;;;;10.32;5.95;;;23.80;97.20;;;;;;6229482;28;20069;-77
2023/10/02 08:21:57;;;;;;;17.35;5.68;;;24.20;95.70;;;;;;6231408;28;20179;-76
2023/10/02 08:25:02;;;;;;;10.80;6.15;;;24.40;94.00;;;;;;6243212;28;20077;-76
2023/10/02 08:28:07;;;;;;;10.85;6.13;;;24.50;92.70;;;;;;6233421;28;20080;-76
2023/10/02 08:31:13;;;;;;;12.20;5.75;;;24.10;91.60;;;;;;6245012;28;20045;-76
2023/10/02 08:34:19;;;;;;;12.50;7.05;;;23.60;92.30;;;;;;6236576;28;20053;-76
2023/10/02 08:37:21;;;;;;;12.10;5.63;;;23.30;92.50;;;;;;6244926;28;20052;-76
2023/10/02 08:40:25;;;;;;;11.05;6.22;;;23.30;92.40;;;;;;6245321;28;20053;-76
2023/10/02 08:43:27;;;;;;;13.50;6.57;;;23.40;92.20;;;;;;6238007;28;20046;-76
2023/10/02 08:46:28;;;;;;;8.20;5.50;;;23.50;91.70;;;;;;6236627;28;20053;-76
2023/10/02 08:49:30;;;;;;;15.50;7.22;;;23.30;91.70;;;;;;6228333;28;20056;-76
2023/10/02 08:52:41;;;;;;;9.93;6.63;;;23.20;91.60;;;;;;6242446;28;20053;-76
2023/10/02 08:55:51;;;;;;;11.38;7.05;;;23.20;91.70;;;;;;6244684;28;20049;-76
2023/10/02 09:02:13;;;;;;;14.65;8.00;;;23.50;91.40;;;;;;6235496;28;20041;-76
2023/10/02 09:05:17;;;;;;;13.43;8.23;;;23.70;91.10;;;;;;6244513;28;20499;-76
2023/10/02 09:08:21;;;;;;;12.23;5.95;;;23.90;90.70;;;;;;6244963;28;20534;-76
2023/10/02 09:11:34;;;;;;;15.75;6.93;;;24.20;90.00;;;;;;6244832;28;20049;-76
2023/10/02 09:14:41;;;;;;;10.80;5.68;;;24.20;89.00;;;;;;6244195;28;20422;-77
2023/10/02 09:17:44;;;;;;;;;;;24.40;88.50;;;;;;6246089;28;20041;-77
2023/10/02 09:20:53;;;;;;;11.43;4.95;;;24.50;88.80;;;;;;6249781;28;20067;-76
2023/10/02 09:24:00;;;;;;;15.68;6.25;;;24.70;87.40;;;;;;6249404;28;20057;-76
2023/10/02 09:27:23;;;;;;;8.50;5.18;;;24.90;86.30;;;;;;6242143;28;20045;-77
2023/10/02 09:30:36;;;;;;;10.75;5.85;;;25.20;85.30;;;;;;6246579;28;20034;-77
2023/10/02 09:33:38;;;;;;;12.57;6.40;;;25.50;84.00;;;;;;6246926;28;20045;-77
2023/10/02 09:36:47;;;;;;;10.95;6.78;;;25.70;82.50;;;;;;6249685;28;20057;-76
2023/10/02 09:39:49;;;;;;;12.73;6.45;;;25.90;81.40;;;;;;6249100;28;20124;-77
2023/10/02 09:43:03;;;;;;;14.80;5.80;;;26.10;80.50;;;;;;6246087;28;20045;-76
2023/10/02 09:46:06;;;;;;;14.50;7.22;;;26.30;79.70;;;;;;6240471;28;20556;-76
2023/10/02 09:49:19;;;;;;;14.98;5.93;;;26.50;78.70;;;;;;6234070;28;20046;-77
2023/10/02 09:52:34;;;;;;;14.20;6.57;;;26.80;77.60;;;;;;6241417;28;20049;-77
2023/10/02 09:55:57;;;;;;;12.25;6.55;;;26.90;76.30;;;;;;6248431;28;20052;-76
2023/10/02 09:59:16;;;;;;;17.63;6.75;;;26.70;75.80;;;;;;6249045;28;20129;-77
2023/10/02 10:05:46;;;;;;;12.38;6.85;;;26.70;76.00;;;;;;6238684;28;20037;-75
2023/10/02 10:09:26;;;;;;;17.70;7.30;;;27.10;74.70;;;;;;6267301;22;20047;-78
2023/10/02 10:16:31;;;;;;;15.23;6.38;;;27.70;73.00;;;;;;6258988;28;20509;-78
2023/10/02 10:19:33;;;;;;;12.55;6.68;;;28.20;71.90;;;;;;6267993;28;20508;-80
2023/10/02 10:22:35;;;;;;;14.57;7.35;;;28.40;71.00;;;;;;6275497;28;20049;-79
2023/10/02 10:25:44;;;;;;;14.10;8.90;;;28.60;69.60;;;;;;6256940;28;20049;-79
2023/10/02 10:28:51;;;;;;;14.55;6.95;;;28.70;68.80;;;;;;6254584;28;20045;-79
2023/10/02 10:31:55;;;;;;;17.57;7.17;;;28.80;68.40;;;;;;6262674;28;20043;-79
2023/10/02 10:38:36;;;;;;;14.93;8.98;;;29.10;66.60;;;;;;6248292;28;20049;-79
2023/10/02 10:41:40;;;;;;;15.35;6.75;;;29.00;66.30;;;;;;6262955;28;20045;-78
2023/10/02 10:44:52;;;;;;;14.93;6.78;;;29.20;66.20;;;;;;6258789;28;20045;-80
2023/10/02 10:47:55;;;;;;;14.95;7.80;;;29.50;65.30;;;;;;6252339;28;20045;-79
2023/10/02 10:51:00;;;;;;;12.43;6.88;;;29.50;64.60;;;;;;6252655;28;20033;-79
2023/10/02 10:54:19;;;;;;;14.50;7.05;;;29.40;64.70;;;;;;6249905;28;20045;-79
2023/10/02 10:57:22;;;;;;;14.75;7.90;;;29.50;64.10;;;;;;6252325;28;20052;-79
2023/10/02 11:00:35;;;;;;;19.67;9.02;;;29.60;64.10;;;;;;6251269;28;20045;-79
2023/10/02 11:03:39;;;;;;;22.40;9.77;;;29.80;63.40;;;;;;6252870;28;20042;-79
2023/10/02 11:06:43;;;;;;;15.70;7.78;;;30.10;63.00;;;;;;6253048;28;20046;-79
2023/10/02 11:09:51;;;;;;;15.75;8.48;;;30.50;62.30;;;;;;6259168;28;20044;-79
2023/10/02 11:12:56;;;;;;;16.10;7.78;;;30.70;61.60;;;;;;6263098;28;20099;-79
2023/10/02 11:16:08;;;;;;;14.77;7.97;;;31.00;61.10;;;;;;6275909;28;20068;-79
2023/10/02 11:19:23;;;;;;;16.67;8.02;;;31.40;60.50;;;;;;6259592;28;20046;-79
2023/10/02 11:22:26;;;;;;;17.15;9.18;;;31.60;59.60;;;;;;6252893;28;20379;-79
2023/10/02 11:25:28;;;;;;;16.25;7.88;;;31.60;59.20;;;;;;6262848;28;20143;-78
2023/10/02 11:28:31;;;;;;;16.30;7.70;;;31.70;58.70;;;;;;6276526;28;20045;-78
2023/10/02 11:31:35;;;;;;;14.98;7.07;;;31.70;58.30;;;;;;6277741;28;20037;-79
2023/10/02 11:34:41;;;;;;;20.63;8.02;;;31.70;58.00;;;;;;6276569;28;20270;-79
2023/10/02 11:37:46;;;;;;;15.70;7.18;;;31.80;57.60;;;;;;6270649;28;20414;-79
2023/10/02 11:40:48;;;;;;;15.75;8.07;;;32.00;57.00;;;;;;6258029;28;20037;-79
2023/10/02 11:43:51;;;;;;;13.70;8.25;;;32.20;56.80;;;;;;6253325;28;20045;-79
2023/10/02 11:46:54;;;;;;;12.48;7.90;;;32.40;56.50;;;;;;6250472;28;20554;-79
2023/10/02 11:49:58;;;;;;;15.27;8.43;;;32.70;56.10;;;;;;6250608;28;20103;-79
2023/10/02 11:53:00;;;;;;;16.63;8.85;;;32.70;55.10;;;;;;6275500;28;20052;-79
2023/10/02 11:56:02;;;;;;;13.50;8.35;;;32.90;55.60;;;;;;6277386;28;20045;-80
2023/10/02 11:59:04;;;;;;;19.77;8.18;;;33.00;54.40;;;;;;6277401;28;20048;-79
2023/10/02 12:02:05;;;;;;;17.20;8.48;;;33.30;54.00;;;;;;6261175;28;20065;-78
2023/10/02 12:05:09;;;;;;;17.85;8.50;;;33.50;52.90;;;;;;6257879;28;20056;-79
2023/10/02 12:08:11;;;;;;;15.70;8.90;;;33.70;52.30;;;;;;6249009;28;20041;-79
2023/10/02 12:11:13;;;;;;;31.63;11.05;;;33.80;51.80;;;;;;6253043;28;20052;-79
2023/10/02 12:14:15;;;;;;;17.83;8.73;;;33.90;51.30;;;;;;6252310;28;20506;-78
2023/10/02 12:17:17;;;;;;;16.13;7.22;;;34.00;50.70;;;;;;6253637;28;20056;-79
2023/10/02 12:20:22;;;;;;;17.65;8.63;;;33.80;50.60;;;;;;6268072;28;20054;-80
2023/10/02 12:23:24;;;;;;;15.75;7.80;;;33.90;50.60;;;;;;6266162;28;20068;-81
2023/10/02 12:26:27;;;;;;;22.20;10.25;;;34.10;50.00;;;;;;6275267;28;20055;-79
2023/10/02 12:29:29;;;;;;;17.25;8.23;;;34.30;49.20;;;;;;6269365;28;20041;-81
2023/10/02 12:32:31;;;;;;;17.17;9.10;;;34.30;48.90;;;;;;6234731;28;20069;-79
2023/10/02 12:35:36;;;;;;;19.10;10.38;;;34.40;48.40;;;;;;6227954;28;20517;-79
2023/10/02 12:38:39;;;;;;;17.52;9.18;;;34.60;48.30;;;;;;6228850;28;20038;-79
2023/10/02 12:41:42;;;;;;;16.05;7.60;;;34.60;48.00;;;;;;6227955;28;20537;-79
2023/10/02 12:44:53;;;;;;;20.73;9.30;;;34.40;48.00;;;;;;6229677;28;20052;-79
2023/10/02 12:47:55;;;;;;;19.20;9.25;;;34.20;48.50;;;;;;6229549;28;20089;-79
2023/10/02 12:50:58;;;;;;;18.77;8.52;;;34.40;48.80;;;;;;6228610;28;20045;-80
2023/10/02 12:54:04;;;;;;;18.45;9.55;;;34.70;48.50;;;;;;6254124;28;20124;-77
2023/10/02 12:57:07;;;;;;;18.58;10.65;;;35.00;48.00;;;;;;6232551;28;20057;-79
2023/10/02 13:00:16;;;;;;;14.18;7.32;;;35.20;47.70;;;;;;6224636;28;20056;-80
2023/10/02 13:03:18;;;;;;;17.13;8.65;;;35.10;47.40;;;;;;6243056;28;20045;-80
2023/10/02 13:06:22;;;;;;;18.27;8.75;;;35.00;47.50;;;;;;6242827;28;20426;-79
2023/10/02 13:09:27;;;;;;;19.35;9.40;;;35.10;47.40;;;;;;6242241;28;20045;-81
2023/10/02 13:12:29;;;;;;;15.60;9.23;;;35.20;47.00;;;;;;6250457;28;20521;-79
2023/10/02 13:15:32;;;;;;;16.90;8.02;;;35.10;47.00;;;;;;6237367;28;20517;-79
2023/10/02 13:18:34;;;;;;;17.67;8.77;;;35.00;46.70;;;;;;6237677;28;20473;-79
2023/10/02 13:21:38;;;;;;;18.10;8.98;;;34.70;46.30;;;;;;6257401;28;20168;-81
2023/10/02 13:24:42;;;;;;;14.68;7.78;;;34.40;47.30;;;;;;6255403;28;20046;-79
2023/10/02 13:27:44;;;;;;;17.98;9.10;;;34.60;47.10;;;;;;6252124;28;20042;-79
2023/10/02 13:30:45;;;;;;;17.70;9.30;;;34.70;47.50;;;;;;6238955;28;20050;-79
2023/10/02 13:33:51;;;;;;;17.42;10.00;;;34.70;46.70;;;;;;6252072;28;20046;-79
2023/10/02 13:36:54;;;;;;;20.83;9.23;;;34.70;46.70;;;;;;6256495;28;20076;-80
2023/10/02 13:39:56;;;;;;;16.88;8.65;;;34.70;46.60;;;;;;6253289;28;20045;-78
2023/10/02 13:42:58;;;;;;;17.85;8.80;;;34.80;46.50;;;;;;6241479;28;20041;-79
2023/10/02 13:46:00;;;;;;;19.85;8.82;;;34.80;46.80;;;;;;6236342;28;20075;-80
2023/10/02 13:49:02;;;;;;;18.13;9.05;;;35.00;46.70;;;;;;6239757;28;20057;-78
2023/10/02 13:52:05;;;;;;;17.05;8.00;;;35.00;46.70;;;;;;6235085;28;20042;-79
2023/10/02 13:55:19;;;;;;;17.88;8.18;;;34.90;46.50;;;;;;6236541;28;20092;-79
2023/10/02 13:58:22;;;;;;;18.75;9.13;;;34.80;46.70;;;;;;6246522;28;20099;-82
2023/10/02 14:01:25;;;;;;;17.63;8.88;;;34.40;47.00;;;;;;6252145;28;20448;-80
2023/10/02 14:04:28;;;;;;;17.25;7.85;;;34.20;47.00;;;;;;6249341;28;20065;-80
2023/10/02 14:07:33;;;;;;;15.20;6.65;;;34.20;47.10;;;;;;6234602;28;20046;-79
2023/10/02 14:10:34;;;;;;;14.63;7.38;;;34.30;46.90;;;;;;6227313;28;20038;-79
2023/10/02 14:13:36;;;;;;;15.63;8.55;;;34.30;46.80;;;;;;6240297;28;20045;-79
2023/10/02 14:16:40;;;;;;;15.25;8.57;;;34.30;46.90;;;;;;6233355;28;20132;-79
2023/10/02 14:19:42;;;;;;;15.13;8.75;;;34.30;47.00;;;;;;6242109;28;20041;-79
2023/10/02 14:22:47;;;;;;;17.00;8.45;;;34.40;47.00;;;;;;6253813;28;20138;-80
2023/10/02 14:25:49;;;;;;;12.55;7.88;;;34.30;46.70;;;;;;6254587;28;20045;-80
2023/10/02 14:28:51;;;;;;;17.70;8.20;;;34.20;46.50;;;;;;6255639;28;20059;-80
2023/10/02 14:31:53;;;;;;;15.60;8.27;;;34.00;46.60;;;;;;6233739;28;20053;-80
2023/10/02 14:34:55;;;;;;;20.35;9.15;;;33.70;46.80;;;;;;6230794;28;20062;-79
2023/10/02 14:37:58;;;;;;;16.25;7.03;;;33.40;47.10;;;;;;6242224;28;20051;-78
2023/10/02 14:41:00;;;;;;;15.35;7.25;;;33.30;47.40;;;;;;6249638;28;20100;-79
2023/10/02 14:44:04;;;;;;;17.92;8.48;;;33.20;47.50;;;;;;6253752;28;20627;-79
2023/10/02 14:47:06;;;;;;;17.45;8.27;;;33.20;47.60;;;;;;6233511;28;20052;-80
2023/10/02 14:50:11;;;;;;;16.25;8.07;;;33.20;47.70;;;;;;6230179;28;20042;-80
2023/10/02 14:53:14;;;;;;;16.05;6.88;;;33.20;47.50;;;;;;6231417;28;20045;-79
2023/10/02 14:56:16;;;;;;;18.42;7.85;;;33.20;47.60;;;;;;6230718;28;20064;-82
2023/10/02 14:59:18;;;;;;;13.27;7.10;;;33.20;47.70;;;;;;6254441;28;20516;-78
2023/10/02 15:02:20;;;;;;;14.10;8.23;;;33.00;47.70;;;;;;6240525;28;20050;-79
2023/10/02 15:05:22;;;;;;;20.75;9.68;;;32.80;48.00;;;;;;6231225;28;20048;-80
2023/10/02 15:08:26;;;;;;;19.75;7.60;;;32.50;47.80;;;;;;6242864;28;20057;-79
2023/10/02 15:11:27;;;;;;;20.98;9.82;;;32.00;48.10;;;;;;6232380;28;20165;-79
2023/10/02 15:14:29;;;;;;;17.05;9.10;;;31.60;48.50;;;;;;6225200;28;20414;-79
2023/10/02 15:17:31;;;;;;;27.17;9.60;;;31.30;48.80;;;;;;6226607;28;20045;-80
2023/10/02 15:20:32;;;;;;;18.23;9.98;;;30.80;49.10;;;;;;6233502;28;20092;-78
2023/10/02 15:23:35;;;;;;;17.30;9.07;;;30.30;49.60;;;;;;6248902;28;20429;-79
2023/10/02 15:26:40;;;;;;;19.35;7.82;;;29.80;50.30;;;;;;6244973;28;20049;-79
2023/10/02 15:29:42;;;;;;;16.40;8.10;;;29.30;51.20;;;;;;6239299;28;20041;-78
2023/10/02 15:32:45;;;;;;;16.33;8.35;;;28.90;52.10;;;;;;6226877;28;20050;-79
2023/10/02 15:35:47;;;;;;;16.00;7.53;;;28.60;52.70;;;;;;6225770;28;20073;-79
2023/10/02 15:38:50;;;;;;;39.30;14.65;;;28.30;53.20;;;;;;6225177;28;20388;-80
2023/10/02 15:41:51;;;;;;;89.90;27.00;;;28.00;54.00;;;;;;6241692;28;20038;-78
2023/10/02 15:44:53;;;;;;;35.03;12.93;;;27.80;54.50;;;;;;6227377;28;20046;-80
2023/10/02 15:47:57;;;;;;;29.70;11.38;;;27.60;55.10;;;;;;6225373;28;20034;-79
2023/10/02 15:50:59;;;;;;;66.72;23.25;;;27.30;55.80;;;;;;6233425;28;20041;-80
2023/10/02 15:54:03;;;;;;;25.35;11.75;;;27.10;56.20;;;;;;6229050;28;20577;-80
2023/10/02 15:57:04;;;;;;;17.80;8.95;;;26.90;56.60;;;;;;6242413;28;20046;-79
2023/10/02 16:00:08;;;;;;;14.60;7.50;;;26.70;57.10;;;;;;6247685;28;20140;-80
2023/10/02 16:03:10;;;;;;;38.08;19.30;;;26.50;58.40;;;;;;6231535;28;20045;-78
2023/10/02 16:06:12;;;;;;;22.88;11.15;;;26.30;60.40;;;;;;6243895;28;20045;-79
2023/10/02 16:09:15;;;;;;;21.65;9.60;;;26.10;61.30;;;;;;6245358;28;20045;-78
2023/10/02 16:12:17;;;;;;;18.83;10.57;;;25.90;62.30;;;;;;6245947;28;20052;-79
2023/10/02 16:15:20;;;;;;;24.27;9.35;;;25.60;63.30;;;;;;6246499;28;20068;-78
2023/10/02 16:18:22;;;;;;;19.05;9.10;;;25.40;64.30;;;;;;6233552;28;20057;-79
2023/10/02 16:21:25;;;;;;;23.25;9.68;;;25.10;65.00;;;;;;6234500;28;20125;-79
2023/10/02 16:24:28;;;;;;;18.52;8.80;;;25.00;66.20;;;;;;6237387;28;20490;-79